Wednesday, September 17, 2014, 1:33 PM EDT

KRDG, Reading Regional Airport

Location: Reading, PA, United States Lat: 40.367
Local Time: 1:33 PM EDT (17:33 GMT) Lon: -75.967
Time Zone: US/Eastern Elev: 344 ft

Show me the last for .
Show Decoded

2014-09-17 12:54 METAR KRDG 171654Z VRB04KT 10SM BKN065 22/08 A3002 =
2014-09-17 11:54 METAR KRDG 171554Z 10SM SCT050 21/09 A3004 RMK AO2 SLP178 T02060094 =
2014-09-17 10:54 METAR KRDG 171454Z VRB03KT 10SM CLR 19/11 A3006 RMK AO2 SLP185 T01940111 58001 =
2014-09-17 09:54 METAR KRDG 171354Z 00000KT 10SM CLR 17/11 A3008 RMK AO2 SLP189 T01670106 =
2014-09-17 08:54 METAR KRDG 171254Z 35003KT 10SM CLR 14/11 A3008 RMK AO2 SLP188 T01390111 =
2014-09-17 07:54 METAR KRDG 171154Z 00000KT 8SM CLR 12/10 A3007 RMK AO2 SLP186 T01170100 10128
                 20094 53009 =
2014-09-17 07:34 METAR KRDG 171134Z 00000KT 5SM BR CLR 11/09 A3007 RMK AO2 T01110094 =
2014-09-17 07:20 METAR KRDG 171120Z 00000KT 2SM R36/3000VP6000FT BR CLR 10/08 A3007 RMK AO2
                 T01000083 =
2014-09-17 06:54 METAR KRDG 171054Z 34003KT 10SM CLR 09/08 A3005 =
2014-09-17 05:54 METAR KRDG 170954Z 00000KT 10SM CLR 11/09 A3004 RMK AO2 SLP178 PATCH GND FG
                 T01060094 =
2014-09-17 05:46 METAR KRDG 170946Z 00000KT 10SM R36/3500VP6000FT CLR 11/09 A3004 RMK AO2 PATCH
                 GND FG T01060089 =
2014-09-17 05:38 METAR KRDG 170938Z AUTO 00000KT 2 1/2SM R36/3500VP6000FT BR FEW002 11/09 A3005
                 RMK AO2 T01060094 =
2014-09-17 04:54 METAR KRDG 170854Z AUTO 00000KT 10SM CLR 11/09 A3004 RMK AO2 SLP177 T01110094
                 58001 =
2014-09-17 03:54 METAR KRDG 170754Z AUTO 23003KT 10SM SCT065 12/10 A3004 RMK AO2 SLP178 T01170100
                 =
2014-09-17 02:54 METAR KRDG 170654Z AUTO 00000KT 10SM SCT045 OVC060 13/11 A3005 RMK AO2 SLP179
                 T01280106 =
2014-09-17 01:54 METAR KRDG 170554Z AUTO 00000KT 10SM SCT050 OVC060 12/10 A3004 RMK AO2 SLP178
                 T01170100 10172 20111 51005 =
2014-09-17 00:54 METAR KRDG 170454Z AUTO 34003KT 10SM FEW065 12/09 A3004 RMK AO2 SLP178 T01170094
                 402280117 =
2014-09-16 23:54 METAR KRDG 170354Z 00000KT 10SM CLR 12/10 A3004 RMK AO2 SLP176 T01220100 =
2014-09-16 22:54 METAR KRDG 170254Z 33004KT 10SM CLR 14/10 A3003 RMK AO2 SLP173 T01390100 50006 =
2014-09-16 21:54 METAR KRDG 170154Z 00000KT 10SM CLR 14/11 A3003 RMK AO2 SLP174 T01440106 =
2014-09-16 20:54 METAR KRDG 170054Z 00000KT 10SM CLR 16/11 A3003 RMK AO2 SLP172 T01560106 =
2014-09-16 19:54 METAR KRDG 162354Z 00000KT 10SM BKN070 17/11 A3001 RMK AO2 SLP167 T01720111
                 10228 20172 53007 =
2014-09-16 18:54 METAR KRDG 162254Z 33006KT 10SM BKN070 19/11 A3001 RMK AO2 SLP165 T01940106 =
2014-09-16 17:54 METAR KRDG 162154Z 36006KT 10SM BKN070 21/10 A3000 RMK AO2 SLP161 T02060100 =
2014-09-16 16:54 METAR KRDG 162054Z 34008KT 10SM OVC065 21/11 A2999 =
2014-09-16 15:54 METAR KRDG 161954Z 34011KT 10SM SCT055 BKN070 22/11 A2999 =
2014-09-16 14:54 METAR KRDG 161854Z AUTO 33009KT 10SM CLR 22/11 A2998 RMK AO2 SLP158 T02220111 =
2014-09-16 13:54 METAR KRDG 161754Z 33012G19KT 10SM FEW037 FEW050 SCT060 21/12 A3000 =

Support USWX by starting your Amazon purchase here.